Brandon, SD

4:43 PM CST on November 23, 2014 (GMT -0600)
East Sioux Falls | Change Station
CLOSE
Current Station
Personal Weather Station
Location: Sioux Falls, SD
Elevation: 1473 ft
Nearby Weather Stations

Elev 1473 ft 43.55 °N, 96.66 °W | Updated 27 seconds ago

Overcast
Overcast
39.4 °F
Feels Like 37 °F
N
4.0
Wind Variable Wind from WSW
Gusts 7.4 mph

Today
High -- | Low -- °F
--% Chance of Precip.
Yesterday
High -- | Low -- °F
Precip. -- in
7:30 AM 4:54 PM
New Moon, 2% visible
Pressure 29.55 in
Visibility 10.0 miles
Clouds Few 3600 ft
Scattered Clouds 4400 ft
Mostly Cloudy 15000 ft
Overcast 25000 ft
Windchill 37 °F
Dew Point 29 °F
Humidity 67%
Rainfall 0.17 in
Snow Depth Not available.
UV 0.0 out of 12
Pollen .10 out of 12
Air Quality Not available.
Flu Activity Not available.
METAR KFSD 232156Z 32015G23KT 10SM FEW036 SCT044 BKN150 OVC250 04/M01 A2951 RMK AO2 PK WND 32031/2115 SLP004 T00441006

More Conditions Fewer Conditions

Pressure 29.55 in
Visibility 10.0 miles
Clouds Few 3600 ft
Scattered Clouds 4400 ft
Mostly Cloudy 15000 ft
Overcast 25000 ft
Windchill 37 °F
Dew Point 29 °F
Humidity 67%
Rainfall 0.17 in
Snow Depth Not available.
UV 0.0 out of 12
Pollen .10 out of 12
Air Quality Not available.
Flu Activity Not available.
METAR KFSD 232156Z 32015G23KT 10SM FEW036 SCT044 BKN150 OVC250 04/M01 A2951 RMK AO2 PK WND 32031/2115 SLP004 T00441006

More Conditions Fewer Conditions

10-Day Weather Forecast

Almanac

Astronomy

Nov. 23, 2014 Rise Set
Actual Time
Civil Twilight
Nautical Twilight
Astronomical Twilight
Moon
Length of Visible Light
Length of Day
Tomorrow will be .
, % of the Moon is Illuminated

Today's Extremes

State Highs State Lows

Community

WunderPhotos

Upload Photos

1,773,187 photos uploaded!

WunderBlogs® & News

Nearby

Air Quality

  Air Quality AQ Index Pollutant
Not available.

Snow Depth

Station Depth Elevation

Earthquake Activity

City Distance Mag. Time & Date
Minimum magnitude displayed is 2.5.

Coastal Water Temperatures

Place Temperature

Nearby Weather Stations